Time;durP1;ratioP1;P1;durP2;ratioP2;P2;SDS_P1;SDS_P2;PMS_P1;PMS_P2;Temp;Humidity;BMP_temperature;BMP_pressure;BME280_temperature;BME280_humidity;BME280_pressure;Samples;Min_cycle;Max_cycle;Signal;HPM_P1;HPM_P2
2021/05/27 00:00:00;;;;;;;8.02;4.55;;;;;;;9.42;86.61;98599.19;5063879;28;20024;-63
2021/05/27 00:02:25;;;;;;;5.75;4.20;;;;;;;9.44;86.47;98607.91;5063748;28;20347;-63
2021/05/27 00:04:51;;;;;;;6.75;4.70;;;;;;;9.39;86.23;98609.72;5063778;28;20031;-63
2021/05/27 00:07:17;;;;;;;5.80;4.95;;;;;;;9.41;86.41;98611.47;5044161;28;20021;-63
2021/05/27 00:09:43;;;;;;;5.97;4.57;;;;;;;9.47;85.95;98606.13;5043829;28;20092;-63
2021/05/27 00:12:09;;;;;;;7.00;4.57;;;;;;;9.45;86.26;98614.88;5043793;28;20029;-63
2021/05/27 00:14:34;;;;;;;6.15;4.50;;;;;;;9.46;86.14;98611.41;5043748;28;20081;-63
2021/05/27 00:17:00;;;;;;;7.68;5.03;;;;;;;9.43;86.35;98621.94;5043681;28;20026;-63
2021/05/27 00:19:25;;;;;;;5.65;4.80;;;;;;;9.44;86.83;98614.03;5043697;28;20049;-63
2021/05/27 00:21:51;;;;;;;6.20;4.93;;;;;;;9.46;85.89;98612.25;5043706;28;20088;-63
2021/05/27 00:24:16;;;;;;;7.85;4.43;;;;;;;9.54;85.88;98620.00;5043504;28;20034;-63
2021/05/27 00:26:41;;;;;;;8.48;5.40;;;;;;;9.49;86.40;98621.84;5043684;28;20084;-63
2021/05/27 00:29:10;;;;;;;8.68;5.20;;;;;;;9.49;86.15;98627.13;5043898;28;20081;-63
2021/05/27 00:31:35;;;;;;;7.95;5.18;;;;;;;9.49;85.98;98632.38;5043888;28;20021;-63
2021/05/27 00:34:01;;;;;;;5.78;4.50;;;;;;;9.47;85.65;98626.25;5048507;28;20025;-63
2021/05/27 00:36:27;;;;;;;10.93;4.93;;;;;;;9.44;86.09;98623.69;5055963;28;20044;-63
2021/05/27 00:38:52;;;;;;;6.28;4.40;;;;;;;9.43;85.27;98621.94;5043587;28;20068;-63
2021/05/27 00:41:18;;;;;;;7.93;4.78;;;;;;;9.35;85.29;98623.81;5043531;28;20025;-63
2021/05/27 00:43:43;;;;;;;7.28;4.88;;;;;;;9.34;86.11;98622.06;5043501;28;20068;-63
2021/05/27 00:46:09;;;;;;;6.40;4.35;;;;;;;9.37;85.71;98633.41;5042421;28;20251;-63
2021/05/27 00:51:18;;;;;;;6.65;4.30;;;;;;;9.41;85.33;98629.84;5043502;28;20072;-63
2021/05/27 00:53:44;;;;;;;8.57;4.40;;;;;;;9.35;85.46;98624.69;5045272;28;20025;-63
2021/05/27 00:56:10;;;;;;;10.52;4.88;;;;;;;9.36;85.58;98630.81;5047463;28;20212;-63
2021/05/27 00:58:36;;;;;;;6.68;4.10;;;;;;;9.36;85.09;98630.81;5046999;28;20028;-63
2021/05/27 01:01:01;;;;;;;6.53;4.05;;;;;;;9.35;85.06;98634.31;5047051;28;20021;-63
2021/05/27 01:03:26;;;;;;;9.02;4.22;;;;;;;9.38;84.94;98634.28;5047069;28;20147;-63
2021/05/27 01:05:52;;;;;;;4.78;3.70;;;;;;;9.43;85.03;98628.06;5046946;28;20025;-63
2021/05/27 01:08:17;;;;;;;4.78;3.97;;;;;;;9.36;85.31;98630.81;5046192;28;20352;-63
2021/05/27 01:10:42;;;;;;;7.00;3.33;;;;;;;9.38;85.24;98634.28;5047526;28;20025;-63
2021/05/27 01:13:08;;;;;;;6.32;3.50;;;;;;;9.42;84.55;98635.94;5046813;28;20088;-63
2021/05/27 01:15:38;;;;;;;4.60;3.53;;;;;;;9.43;84.96;98633.31;5046797;28;20342;-63
2021/05/27 01:18:09;;;;;;;6.63;3.88;;;;;;;9.36;85.06;98641.31;5046631;28;20026;-63
2021/05/27 01:20:36;;;;;;;5.60;3.63;;;;;;;9.33;85.64;98641.38;5046922;28;20033;-63
2021/05/27 01:23:03;;;;;;;6.30;3.70;;;;;;;9.31;85.37;98641.38;5046622;28;20052;-63
2021/05/27 01:25:29;;;;;;;5.80;4.20;;;;;;;9.30;85.51;98638.78;5063715;28;20069;-63
2021/05/27 01:27:54;;;;;;;5.10;3.33;;;;;;;9.39;85.05;98636.00;5066392;28;20335;-63
2021/05/27 01:30:21;;;;;;;3.55;2.95;;;;;;;9.39;85.13;98641.25;5066494;28;20071;-63
2021/05/27 01:32:47;;;;;;;6.65;3.92;;;;;;;9.33;85.07;98641.38;5066426;28;20025;-63
2021/05/27 01:35:17;;;;;;;4.93;3.30;;;;;;;9.33;85.79;98641.38;5066379;28;20330;-63
2021/05/27 01:37:44;;;;;;;9.48;3.63;;;;;;;9.33;85.64;98642.22;5066269;28;20024;-63
2021/05/27 01:40:10;;;;;;;7.07;3.80;;;;;;;9.39;84.87;98638.63;5064654;28;20048;-63
2021/05/27 01:42:35;;;;;;;7.25;3.30;;;;;;;9.43;84.54;98645.59;5066198;28;20039;-63
2021/05/27 01:45:02;;;;;;;7.07;4.18;;;;;;;9.39;84.81;98641.25;5066215;28;20028;-63
2021/05/27 01:47:28;;;;;;;6.13;3.90;;;;;;;9.43;84.57;98642.97;5066185;28;20080;-63
2021/05/27 01:49:53;;;;;;;5.45;3.25;;;;;;;9.36;84.92;98646.56;5066117;28;20350;-63
2021/05/27 01:52:19;;;;;;;4.15;3.33;;;;;;;9.37;84.76;98649.19;5066077;28;20029;-63
2021/05/27 01:54:44;;;;;;;4.93;3.38;;;;;;;9.38;84.96;98657.91;5066050;28;20249;-63
2021/05/27 01:57:09;;;;;;;4.53;3.13;;;;;;;9.39;85.22;98654.38;5065937;28;20088;-63
2021/05/27 01:59:36;;;;;;;6.75;3.60;;;;;;;9.42;84.52;98668.34;5054348;28;20025;-63
2021/05/27 02:02:02;;;;;;;6.18;3.53;;;;;;;9.36;85.46;98662.34;5045931;28;20029;-63
2021/05/27 02:04:27;;;;;;;6.00;3.63;;;;;;;9.38;84.84;98655.28;5045020;28;20135;-63
2021/05/27 02:06:53;;;;;;;4.05;3.03;;;;;;;9.41;84.55;98649.97;5045732;28;20032;-63
2021/05/27 02:09:18;;;;;;;4.35;3.35;;;;;;;9.40;85.11;98653.50;5045797;28;20347;-63
2021/05/27 02:11:46;;;;;;;5.82;3.65;;;;;;;9.39;84.52;98652.63;5045767;28;20049;-63
2021/05/27 02:14:13;;;;;;;5.95;3.90;;;;;;;9.39;85.27;98657.00;5052613;28;20024;-63
2021/05/27 02:16:41;;;;;;;6.60;3.60;;;;;;;9.45;85.02;98654.28;5065165;28;20088;-63
2021/05/27 02:19:07;;;;;;;8.82;4.05;;;;;;;9.35;85.21;98660.56;5065565;28;20070;-63
2021/05/27 02:21:34;;;;;;;5.05;3.80;;;;;;;9.32;85.08;98661.50;5065494;28;20035;-63
2021/05/27 02:24:00;;;;;;;5.93;3.42;;;;;;;9.41;84.98;98661.38;5065491;28;20074;-63
2021/05/27 02:26:27;;;;;;;8.63;3.75;;;;;;;9.36;84.98;98672.84;5065291;28;20370;-63
2021/05/27 02:28:53;;;;;;;6.72;3.85;;;;;;;9.37;84.99;98664.94;5065551;28;20314;-63
2021/05/27 02:31:20;;;;;;;8.32;3.50;;;;;;;9.39;85.17;98667.50;5065342;28;20327;-63
2021/05/27 02:33:47;;;;;;;4.72;3.50;;;;;;;9.39;85.57;98668.41;5065245;28;20025;-63
2021/05/27 02:36:12;;;;;;;8.27;3.78;;;;;;;9.39;84.84;98664.88;5053755;28;20057;-63
2021/05/27 02:38:38;;;;;;;8.25;3.58;;;;;;;9.36;84.15;98668.44;5045207;28;20324;-63
2021/05/27 02:41:06;;;;;;;8.48;4.00;;;;;;;9.40;84.75;98653.50;5045118;28;20032;-63
2021/05/27 02:43:33;;;;;;;5.40;3.45;;;;;;;9.41;84.00;98668.38;5045300;28;20029;-63
2021/05/27 02:45:59;;;;;;;4.07;3.05;;;;;;;9.42;84.27;98664.84;5045106;28;20026;-63
2021/05/27 02:48:25;;;;;;;5.47;3.65;;;;;;;9.39;84.23;98657.00;5045282;28;20028;-63
2021/05/27 02:50:50;;;;;;;4.60;3.55;;;;;;;9.40;84.60;98659.63;5045002;28;20025;-63
2021/05/27 02:53:16;;;;;;;4.75;3.65;;;;;;;9.44;84.31;98655.19;5044958;28;20025;-63
2021/05/27 02:55:41;;;;;;;6.40;3.63;;;;;;;9.36;84.44;98651.84;5047835;28;20064;-63
2021/05/27 02:58:07;;;;;;;6.80;4.15;;;;;;;9.38;84.81;98657.91;5064757;28;20347;-63
2021/05/27 03:00:32;;;;;;;4.72;3.30;;;;;;;9.37;85.00;98653.56;5064779;28;20216;-63
2021/05/27 03:02:58;;;;;;;7.88;4.05;;;;;;;9.32;85.01;98655.38;5064655;28;20055;-63
2021/05/27 03:05:23;;;;;;;10.30;4.25;;;;;;;9.33;85.28;98657.97;5047308;28;20025;-63
2021/05/27 03:07:48;;;;;;;5.57;4.00;;;;;;;9.23;85.52;98656.38;5044679;28;20371;-63
2021/05/27 03:10:14;;;;;;;7.15;4.35;;;;;;;9.22;85.31;98653.75;5048877;28;20034;-63
2021/05/27 03:12:39;;;;;;;6.85;3.88;;;;;;;9.30;84.70;98658.00;5064538;28;20029;-63
2021/05/27 03:15:07;;;;;;;7.70;4.68;;;;;;;9.30;84.42;98651.91;5064493;28;20104;-63
2021/05/27 03:17:32;;;;;;;9.77;4.05;;;;;;;9.29;84.64;98660.66;5064306;28;20037;-63
2021/05/27 03:19:58;;;;;;;4.60;3.65;;;;;;;9.26;84.80;98661.56;5064716;28;20024;-63
2021/05/27 03:22:23;;;;;;;5.35;3.70;;;;;;;9.26;84.78;98660.69;5064338;28;20025;-63
2021/05/27 03:24:49;;;;;;;4.70;3.80;;;;;;;9.18;84.86;98658.22;5064210;28;20048;-63
2021/05/27 03:27:14;;;;;;;5.93;3.55;;;;;;;9.19;84.77;98653.81;5064368;28;20212;-63
2021/05/27 03:29:40;;;;;;;5.97;3.80;;;;;;;9.14;84.77;98655.63;5064287;28;20032;-63
2021/05/27 03:32:05;;;;;;;9.57;4.35;;;;;;;9.14;84.89;98655.63;5064252;28;20232;-63
2021/05/27 03:34:31;;;;;;;4.43;3.58;;;;;;;9.12;84.27;98658.28;5064451;28;20024;-63
2021/05/27 03:36:56;;;;;;;7.03;4.22;;;;;;;9.11;84.27;98660.94;5045139;28;20026;-63
2021/05/27 03:39:22;;;;;;;6.80;3.60;;;;;;;9.17;83.82;98656.44;5044117;28;20028;-63
2021/05/27 03:41:47;;;;;;;7.05;4.00;;;;;;;9.13;82.36;98657.38;5044113;28;20017;-63
2021/05/27 03:44:13;;;;;;;6.68;3.92;;;;;;;9.17;82.82;98655.59;5044364;28;20048;-63
2021/05/27 03:46:38;;;;;;;5.75;3.60;;;;;;;9.12;82.92;98652.16;5061561;28;20020;-63
2021/05/27 03:49:05;;;;;;;5.88;4.00;;;;;;;9.10;83.10;98661.78;5063993;28;20025;-63
2021/05/27 03:51:30;;;;;;;4.78;3.60;;;;;;;9.09;82.96;98668.81;5063896;28;20028;-63
2021/05/27 03:53:56;;;;;;;6.47;4.30;;;;;;;9.09;83.71;98667.94;5058332;28;20021;-63
2021/05/27 03:56:21;;;;;;;7.57;3.45;;;;;;;9.12;82.94;98667.91;5043939;28;20021;-63
2021/05/27 04:01:30;;;;;;;8.27;3.80;;;;;;;9.23;83.15;98673.88;5044007;28;20397;-63
2021/05/27 04:09:24;;;;;;;7.70;3.70;;;;;;;9.32;83.56;98665.88;5043842;28;20032;-63
2021/05/27 04:11:49;;;;;;;5.97;3.63;;;;;;;9.44;82.90;98676.22;5043808;28;20025;-63
2021/05/27 04:14:14;;;;;;;6.70;4.25;;;;;;;9.48;82.68;98672.66;5043831;28;20026;-63
2021/05/27 04:16:40;;;;;;;7.75;3.40;;;;;;;9.49;83.09;98674.41;5043753;28;20131;-63
2021/05/27 04:19:05;;;;;;;4.38;3.42;;;;;;;9.51;83.25;98677.84;5043739;28;20022;-63
2021/05/27 04:21:31;;;;;;;6.15;4.45;;;;;;;9.47;83.30;98681.44;5061506;28;20025;-63
2021/05/27 04:23:56;;;;;;;6.72;4.35;;;;;;;9.55;83.84;98682.19;5063643;28;20028;-63
2021/05/27 04:26:22;;;;;;;7.93;3.92;;;;;;;9.69;83.67;98682.84;5063509;28;20331;-63
2021/05/27 04:28:47;;;;;;;9.10;4.70;;;;;;;9.67;83.32;98690.75;5065710;28;20021;-63
2021/05/27 04:31:17;;;;;;;8.82;4.28;;;;;;;9.73;83.48;98693.31;5067622;28;20016;-63
2021/05/27 04:33:42;;;;;;;5.05;4.00;;;;;;;9.80;82.59;98691.44;5059106;28;20148;-63
2021/05/27 04:36:12;;;;;;;7.10;4.18;;;;;;;9.85;83.39;98690.50;5051249;28;20304;-63
2021/05/27 04:38:38;;;;;;;7.43;4.38;;;;;;;10.07;82.43;98691.03;5052909;28;20018;-63
2021/05/27 04:41:04;;;;;;;8.85;4.03;;;;;;;10.71;79.78;98707.44;5052077;28;20024;-63
2021/05/27 04:43:30;;;;;;;5.90;3.25;;;;;;;10.70;80.51;98705.69;5051242;28;20051;-63
2021/05/27 04:45:56;;;;;;;7.32;3.47;;;;;;;10.93;79.13;98708.75;5058037;28;20024;-63
2021/05/27 04:48:21;;;;;;;4.63;3.20;;;;;;;11.27;79.02;98704.56;5067301;28;20043;-63
2021/05/27 04:50:49;;;;;;;6.70;3.70;;;;;;;11.18;78.24;98710.00;5067520;28;20031;-63
2021/05/27 04:53:15;;;;;;;6.40;3.97;;;;;;;11.03;79.23;98715.56;5067188;28;20048;-63
2021/05/27 04:55:41;;;;;;;6.97;3.72;;;;;;;10.99;79.26;98721.81;5067183;28;20024;-63
2021/05/27 04:58:06;;;;;;;5.18;3.80;;;;;;;10.87;79.25;98724.66;5067029;28;20017;-63
2021/05/27 05:00:33;;;;;;;6.40;3.83;;;;;;;10.87;78.86;98724.66;5067320;28;20052;-63
2021/05/27 05:02:59;;;;;;;7.80;3.95;;;;;;;10.90;79.11;98725.50;5067112;28;20024;-63
2021/05/27 05:05:26;;;;;;;7.85;3.97;;;;;;;10.77;79.02;98718.72;5067237;28;20066;-63
2021/05/27 05:07:52;;;;;;;6.32;4.00;;;;;;;10.81;79.01;98730.03;5066905;28;20013;-63
2021/05/27 05:10:19;;;;;;;5.53;3.28;;;;;;;10.91;78.60;98726.34;5066878;28;20279;-63
2021/05/27 05:12:46;;;;;;;7.43;4.18;;;;;;;10.70;79.39;98726.75;5066850;28;20024;-63
2021/05/27 05:15:18;;;;;;;8.50;3.85;;;;;;;10.75;79.30;98722.25;5066801;28;20091;-63
2021/05/27 05:17:51;;;;;;;6.68;3.50;;;;;;;10.87;78.81;98719.41;5066728;28;20052;-63
2021/05/27 05:20:20;;;;;;;5.85;4.07;;;;;;;10.95;79.44;98718.34;5066789;28;20035;-63
2021/05/27 05:22:45;;;;;;;5.13;3.40;;;;;;;11.08;78.77;98719.00;5066645;28;20025;-63
2021/05/27 05:25:11;;;;;;;6.13;4.43;;;;;;;11.25;78.27;98716.88;5066399;28;20055;-63
2021/05/27 05:27:37;;;;;;;5.70;3.63;;;;;;;13.02;73.47;98711.69;5066808;28;20024;-63
2021/05/27 05:30:04;;;;;;;5.72;3.63;;;;;;;12.71;71.01;98710.75;5066756;28;20130;-63
2021/05/27 05:32:30;;;;;;;4.05;2.78;;;;;;;13.40;70.75;98711.47;5066560;28;20025;-63
2021/05/27 05:34:55;;;;;;;4.68;2.88;;;;;;;13.29;70.18;98707.41;5066681;28;20423;-63
2021/05/27 05:37:21;;;;;;;4.80;3.35;;;;;;;12.85;71.68;98714.75;5066571;28;20349;-63
2021/05/27 05:39:46;;;;;;;6.65;3.53;;;;;;;12.81;73.78;98702.53;5064985;28;20025;-63
2021/05/27 05:42:12;;;;;;;7.45;3.78;;;;;;;12.44;72.97;98722.88;5066266;28;20029;-63
2021/05/27 05:44:37;;;;;;;6.03;3.42;;;;;;;12.30;74.11;98719.75;5066221;28;20087;-63
2021/05/27 05:47:02;;;;;;;7.28;3.78;;;;;;;12.09;74.13;98722.88;5066439;28;20021;-63
2021/05/27 05:49:28;;;;;;;5.65;3.80;;;;;;;11.88;74.67;98723.41;5066134;28;20047;-63
2021/05/27 05:51:53;;;;;;;6.82;4.18;;;;;;;11.70;75.32;98721.19;5066094;28;20021;-63
2021/05/27 05:54:19;;;;;;;7.75;3.65;;;;;;;11.90;74.48;98724.22;5066304;28;20031;-63
2021/05/27 05:56:44;;;;;;;9.68;4.25;;;;;;;12.02;74.77;98718.66;5065908;28;20025;-63
2021/05/27 05:59:10;;;;;;;9.13;4.78;;;;;;;12.07;76.02;98726.47;5065986;28;20024;-63
2021/05/27 06:01:35;;;;;;;7.05;3.97;;;;;;;12.29;74.63;98728.56;5066014;28;20072;-63
2021/05/27 06:04:00;;;;;;;6.38;3.60;;;;;;;12.35;73.04;98727.56;5065818;28;20021;-63
2021/05/27 06:06:26;;;;;;;7.03;4.68;;;;;;;12.09;74.42;98724.69;5065888;28;20021;-63
2021/05/27 06:08:52;;;;;;;9.00;3.85;;;;;;;12.32;74.51;98728.50;5065779;28;20025;-63
2021/05/27 06:11:18;;;;;;;6.00;3.65;;;;;;;12.94;72.03;98730.34;5066007;28;20208;-63
2021/05/27 06:13:44;;;;;;;9.30;3.70;;;;;;;12.68;72.71;98727.56;5065702;28;20028;-63
2021/05/27 06:16:09;;;;;;;7.57;4.25;;;;;;;12.48;72.75;98740.41;5065665;28;20048;-63
2021/05/27 06:18:35;;;;;;;6.88;4.20;;;;;;;12.56;71.87;98738.44;5065564;28;20036;-63
2021/05/27 06:21:01;;;;;;;6.25;3.70;;;;;;;12.80;72.06;98737.81;5065840;28;20080;-63
2021/05/27 06:23:26;;;;;;;6.18;3.80;;;;;;;12.71;72.81;98748.59;5065509;28;20219;-63
2021/05/27 06:25:52;;;;;;;6.63;3.50;;;;;;;13.97;69.98;98744.09;5065346;28;20041;-63
2021/05/27 06:28:18;;;;;;;4.60;2.90;;;;;;;14.28;68.14;98751.97;5065437;28;20017;-63
2021/05/27 06:30:43;;;;;;;4.43;3.28;;;;;;;13.76;68.63;98750.03;5065411;28;20036;-63
2021/05/27 06:33:09;;;;;;;6.70;3.25;;;;;;;14.20;66.33;98751.28;5065327;28;20025;-63
2021/05/27 06:35:35;;;;;;;5.93;3.72;;;;;;;13.68;69.03;98756.47;5065318;28;20025;-63
2021/05/27 06:38:01;;;;;;;5.97;3.35;;;;;;;13.90;67.11;98746.97;5065189;28;20066;-63
2021/05/27 06:40:28;;;;;;;6.50;4.00;;;;;;;14.14;69.22;98760.31;5065180;28;20044;-63
2021/05/27 06:42:53;;;;;;;6.13;4.13;;;;;;;14.23;66.92;98756.53;5065397;28;20428;-63
2021/05/27 06:45:21;;;;;;;6.30;3.47;;;;;;;14.45;66.71;98760.22;5065347;28;20070;-63
2021/05/27 06:47:48;;;;;;;10.95;4.57;;;;;;;14.16;67.95;98761.13;5065031;28;20021;-63
2021/05/27 06:50:15;;;;;;;6.63;3.35;;;;;;;15.07;65.17;98764.28;5064924;28;20343;-63
2021/05/27 06:52:40;;;;;;;5.68;3.55;;;;;;;16.66;61.33;98755.44;5064619;28;20031;-63
2021/05/27 06:55:07;;;;;;;5.20;3.40;;;;;;;16.92;58.66;98755.22;5064906;28;20029;-63
2021/05/27 06:57:34;;;;;;;7.97;3.30;;;;;;;16.53;61.13;98756.00;5065034;28;20243;-63
2021/05/27 06:59:59;;;;;;;5.30;2.85;;;;;;;17.32;57.72;98764.09;5064794;28;20048;-63
2021/05/27 07:02:25;;;;;;;3.75;2.40;;;;;;;17.56;56.25;98752.41;5064696;28;20021;-63
2021/05/27 07:04:50;;;;;;;5.43;2.72;;;;;;;17.80;57.24;98756.59;5064705;28;20036;-63
2021/05/27 07:07:15;;;;;;;6.68;2.40;;;;;;;17.87;56.38;98753.59;5064947;28;20241;-63
2021/05/27 07:09:41;;;;;;;5.47;2.30;;;;;;;18.12;54.51;98747.97;5064620;28;20032;-63
2021/05/27 07:12:07;;;;;;;4.07;2.50;;;;;;;18.10;56.70;98747.19;5064595;28;20051;-63
2021/05/27 07:14:33;;;;;;;5.05;2.70;;;;;;;17.92;56.00;98745.38;5064557;28;20039;-63
2021/05/27 07:16:59;;;;;;;4.03;2.42;;;;;;;18.30;55.37;98744.41;5064412;28;20032;-63
2021/05/27 07:19:25;;;;;;;3.38;2.03;;;;;;;19.18;51.94;98747.06;5064408;28;20108;-63
2021/05/27 07:21:50;;;;;;;3.72;1.92;;;;;;;18.65;53.53;98746.25;5064418;28;20028;-63
2021/05/27 07:24:15;;;;;;;5.18;2.10;;;;;;;18.42;52.10;98751.88;5064148;28;20035;-63
2021/05/27 07:26:41;;;;;;;3.53;1.90;;;;;;;17.92;54.71;98745.38;5064336;28;20324;-63
2021/05/27 07:29:07;;;;;;;3.80;2.30;;;;;;;17.89;55.40;98751.72;5064539;28;20049;-63
2021/05/27 07:31:33;;;;;;;5.40;1.92;;;;;;;17.45;56.00;98750.22;5064284;28;20268;-63
2021/05/27 07:33:59;;;;;;;5.97;1.77;;;;;;;16.83;56.59;98760.03;5064515;28;20072;-63
2021/05/27 07:36:25;;;;;;;2.50;1.50;;;;;;;16.56;56.96;98762.06;5064157;28;20025;-63
2021/05/27 07:38:51;;;;;;;5.68;1.95;;;;;;;16.29;57.49;98763.16;5064067;28;20052;-63
2021/05/27 07:41:16;;;;;;;3.50;1.92;;;;;;;16.31;59.44;98765.75;5064150;28;20245;-63
2021/05/27 07:43:42;;;;;;;5.75;2.00;;;;;;;16.39;57.18;98764.50;5064075;28;20021;-63
2021/05/27 07:46:08;;;;;;;4.57;1.65;;;;;;;16.80;57.56;98761.03;5063988;28;20032;-63
2021/05/27 07:48:33;;;;;;;2.95;1.40;;;;;;;17.02;56.97;98760.97;5064023;28;20104;-63
2021/05/27 07:50:59;;;;;;;4.57;1.70;;;;;;;17.27;57.14;98761.66;5063991;28;20320;-63
2021/05/27 07:53:25;;;;;;;7.00;1.90;;;;;;;17.69;57.68;98761.56;5063991;28;20273;-63
2021/05/27 07:55:51;;;;;;;3.40;1.60;;;;;;;17.83;55.80;98769.78;5064145;28;20031;-63
2021/05/27 07:58:16;;;;;;;4.22;1.48;;;;;;;17.17;56.47;98766.53;5063882;28;20060;-64
2021/05/27 08:00:42;;;;;;;4.13;1.77;;;;;;;16.98;58.51;98765.59;5063875;28;20024;-64
2021/05/27 08:03:07;;;;;;;4.18;1.90;;;;;;;16.79;56.76;98764.63;5063012;28;20025;-64
2021/05/27 08:05:34;;;;;;;4.55;1.50;;;;;;;16.70;58.78;98772.09;5063843;28;20058;-64
2021/05/27 08:08:00;;;;;;;4.95;1.73;;;;;;;16.27;57.29;98770.34;5062644;28;20021;-64
2021/05/27 08:10:25;;;;;;;2.95;1.50;;;;;;;16.12;60.94;98767.41;5063756;28;20036;-64
2021/05/27 08:12:51;;;;;;;5.13;1.63;;;;;;;16.19;59.56;98772.41;5063751;28;20060;-64
2021/05/27 08:15:16;;;;;;;5.05;1.60;;;;;;;15.86;59.02;98768.41;5063698;28;20032;-64
2021/05/27 08:17:42;;;;;;;2.70;1.30;;;;;;;15.99;58.78;98767.03;5063695;28;20067;-64
2021/05/27 08:20:09;;;;;;;1.52;1.40;;;;;;;15.80;61.60;98770.44;5063676;28;20324;-64
2021/05/27 08:22:36;;;;;;;3.67;1.80;;;;;;;15.79;60.35;98766.91;5063663;28;20024;-64
2021/05/27 08:25:02;;;;;;;3.63;1.38;;;;;;;15.58;60.91;98770.38;5063505;28;20052;-64
2021/05/27 08:27:28;;;;;;;4.05;1.65;;;;;;;15.79;59.91;98777.50;5063879;28;20074;-63
2021/05/27 08:29:53;;;;;;;2.10;1.30;;;;;;;15.74;60.39;98768.88;5063603;28;20187;-63
2021/05/27 08:32:19;;;;;;;3.25;1.63;;;;;;;15.69;60.63;98764.69;5063559;28;20021;-63
2021/05/27 08:34:44;;;;;;;4.07;1.40;;;;;;;15.76;62.20;98766.16;5063517;28;20054;-64
2021/05/27 08:37:10;;;;;;;3.75;1.60;;;;;;;15.80;61.11;98773.09;5063453;28;20047;-64
2021/05/27 08:39:35;;;;;;;4.43;1.42;;;;;;;15.97;57.67;98766.19;5063590;28;20032;-64
2021/05/27 08:42:01;;;;;;;5.22;1.30;;;;;;;15.92;56.90;98773.50;5063467;28;20027;-64
2021/05/27 08:44:27;;;;;;;3.92;1.15;;;;;;;15.83;56.21;98783.59;5063450;28;20031;-64
2021/05/27 08:46:53;;;;;;;4.57;1.20;;;;;;;15.53;58.89;98780.28;5063451;28;20016;-64
2021/05/27 08:49:18;;;;;;;3.15;1.20;;;;;;;15.31;58.71;98789.91;5063452;28;20366;-64
2021/05/27 08:51:44;;;;;;;3.85;1.40;;;;;;;15.29;59.13;98786.47;5063409;28;20021;-64
2021/05/27 08:54:10;;;;;;;3.13;1.20;;;;;;;15.28;59.67;98784.69;5063370;28;20019;-64
2021/05/27 08:56:36;;;;;;;3.05;1.25;;;;;;;15.14;60.13;98792.28;5063533;28;20269;-64
2021/05/27 08:59:02;;;;;;;5.63;1.33;;;;;;;15.31;59.60;98795.19;5063362;28;20070;-64
2021/05/27 09:01:27;;;;;;;6.43;1.48;;;;;;;15.31;59.49;98795.19;5063295;28;20025;-64
2021/05/27 09:03:56;;;;;;;2.25;1.20;;;;;;;15.24;59.34;98796.34;5063485;28;20075;-64
2021/05/27 09:06:23;;;;;;;5.78;1.30;;;;;;;15.18;59.45;98805.38;5063266;28;20032;-64
2021/05/27 09:08:49;;;;;;;2.40;1.05;;;;;;;15.12;60.34;98804.72;5063175;28;20132;-64
2021/05/27 09:11:20;;;;;;;5.22;1.00;;;;;;;15.09;59.93;98810.13;5063214;28;20021;-64
2021/05/27 09:13:55;;;;;;;1.98;1.17;;;;;;;15.04;59.30;98809.44;5063774;28;20025;-64
2021/05/27 09:16:20;;;;;;;7.75;1.50;;;;;;;14.74;60.47;98807.81;5066793;28;20031;-64
2021/05/27 09:18:46;;;;;;;1.92;1.10;;;;;;;14.67;60.63;98811.56;5066658;28;20025;-64
2021/05/27 09:21:13;;;;;;;4.68;1.30;;;;;;;14.59;59.80;98813.63;5066709;28;20263;-64
2021/05/27 09:23:50;;;;;;;2.45;1.05;;;;;;;14.47;60.87;98811.38;5066653;28;20087;-64
2021/05/27 09:26:17;;;;;;;3.47;1.15;;;;;;;14.29;61.15;98815.47;5066501;28;20041;-63
2021/05/27 09:28:45;;;;;;;5.80;1.48;;;;;;;14.24;61.09;98811.25;5066608;28;20243;-63
2021/05/27 09:31:14;;;;;;;4.28;1.23;;;;;;;14.33;62.09;98816.25;5066520;28;20066;-63
2021/05/27 09:33:47;;;;;;;3.22;1.35;;;;;;;14.37;60.83;98823.19;5066475;28;20024;-63
2021/05/27 09:36:14;;;;;;;4.82;1.30;;;;;;;14.45;61.53;98815.84;5066394;28;20021;-63
2021/05/27 09:38:45;;;;;;;8.70;1.40;;;;;;;14.33;61.80;98822.38;5066369;28;20048;-63
2021/05/27 09:41:24;;;;;;;5.23;1.50;;;;;;;14.32;60.80;98817.13;5066392;28;20043;-63
2021/05/27 09:43:55;;;;;;;3.85;1.10;;;;;;;14.40;61.22;98823.06;5066268;28;20055;-63
2021/05/27 09:46:22;;;;;;;3.30;1.40;;;;;;;14.48;61.77;98821.03;5066275;28;20251;-63
2021/05/27 09:49:05;;;;;;;2.95;1.00;;;;;;;14.56;62.00;98819.03;5066212;28;20020;-63
2021/05/27 09:51:31;;;;;;;5.38;1.65;;;;;;;14.58;60.88;98823.34;5066181;28;20025;-63
2021/05/27 09:53:57;;;;;;;5.53;1.35;;;;;;;14.58;60.51;98827.78;5066366;28;20323;-64
2021/05/27 09:56:40;;;;;;;6.20;1.33;;;;;;;14.62;60.26;98829.44;5066055;28;20040;-64
2021/05/27 09:59:07;;;;;;;3.63;1.40;;;;;;;14.72;62.04;98831.69;5066020;28;20033;-64
2021/05/27 10:01:32;;;;;;;2.85;1.45;;;;;;;14.77;60.43;98823.59;5066093;28;20223;-64
2021/05/27 10:04:14;;;;;;;4.38;1.80;;;;;;;14.74;60.96;98829.00;5065828;28;20024;-64
2021/05/27 10:06:40;;;;;;;2.73;1.30;;;;;;;14.67;60.47;98835.44;5065941;28;20029;-64
2021/05/27 10:09:08;;;;;;;3.42;1.80;;;;;;;14.57;61.37;98831.34;5066050;28;20257;-64
2021/05/27 10:11:34;;;;;;;8.32;1.80;;;;;;;14.63;60.62;98825.84;5065799;28;20048;-64
2021/05/27 10:14:00;;;;;;;3.70;1.35;;;;;;;14.65;61.79;98834.63;5065769;28;20059;-64
2021/05/27 10:16:26;;;;;;;3.13;1.30;;;;;;;14.54;61.31;98826.13;5065675;28;20036;-64
2021/05/27 10:18:56;;;;;;;3.88;1.60;;;;;;;14.47;61.44;98827.25;5065799;28;20033;-64
2021/05/27 10:21:24;;;;;;;4.50;1.45;;;;;;;14.47;62.95;98833.44;5065884;28;20021;-63
2021/05/27 10:23:51;;;;;;;3.15;1.52;;;;;;;14.47;63.12;98829.91;5065805;28;20209;-63
2021/05/27 10:26:16;;;;;;;3.78;1.42;;;;;;;14.64;61.67;98838.16;5064566;28;20049;-63
2021/05/27 10:28:51;;;;;;;4.45;1.60;;;;;;;14.82;60.82;98837.59;5065535;28;20264;-63
2021/05/27 10:31:20;;;;;;;2.85;1.40;;;;;;;14.94;59.90;98826.59;5065707;28;20021;-63
2021/05/27 10:33:45;;;;;;;5.10;1.45;;;;;;;14.91;59.92;98831.97;5065354;28;20209;-63
2021/05/27 10:36:11;;;;;;;4.65;1.10;;;;;;;15.12;59.52;98828.59;5065193;28;20016;-63
2021/05/27 10:38:37;;;;;;;6.28;1.45;;;;;;;15.28;60.24;98836.91;5065270;28;20017;-63
2021/05/27 10:41:03;;;;;;;7.68;1.52;;;;;;;15.42;57.88;98830.22;5065207;28;20052;-63
2021/05/27 10:43:28;;;;;;;3.55;1.25;;;;;;;15.35;58.15;98828.69;5065161;28;20025;-63
2021/05/27 10:45:56;;;;;;;3.53;1.30;;;;;;;15.04;59.20;98828.00;5065135;28;20343;-63
2021/05/27 10:48:26;;;;;;;3.47;1.27;;;;;;;15.00;59.71;98836.97;5065081;28;20021;-63
2021/05/27 10:53:38;;;;;;;3.00;1.50;;;;;;;16.01;56.14;98828.03;5065297;28;20035;-63
2021/05/27 10:56:05;;;;;;;7.53;2.30;;;;;;;16.07;57.47;98825.16;5065184;28;20044;-63
2021/05/27 10:58:49;;;;;;;2.80;1.40;;;;;;;16.35;55.16;98821.34;5064799;28;20088;-63
2021/05/27 11:01:19;;;;;;;2.45;1.30;;;;;;;16.34;55.74;98824.94;5065098;28;20317;-63
2021/05/27 11:03:49;;;;;;;3.67;1.73;;;;;;;16.30;55.96;98828.63;5064665;28;20025;-63
2021/05/27 11:06:29;;;;;;;4.18;1.48;;;;;;;16.35;56.81;98834.63;5065013;28;20079;-63
2021/05/27 11:09:10;;;;;;;4.10;1.40;;;;;;;16.42;56.25;98833.44;5064673;28;20017;-63
2021/05/27 11:11:39;;;;;;;4.25;1.33;;;;;;;16.64;55.63;98829.03;5064648;28;20255;-63
2021/05/27 11:14:22;;;;;;;2.70;1.42;;;;;;;16.59;55.29;98830.16;5064546;28;20025;-63
2021/05/27 11:22:31;;;;;;;5.70;1.17;;;;;;;16.56;55.06;98828.50;5064757;28;19947;-63
2021/05/27 11:27:37;;;;;;;1.95;1.15;;;;;;;16.29;54.54;98829.56;5064626;28;20088;-63
2021/05/27 11:30:23;;;;;;;5.38;1.23;;;;;;;16.34;54.07;98824.06;5064546;28;20115;-63
2021/05/27 11:33:15;;;;;;;1.95;1.20;;;;;;;16.74;52.51;98825.09;5064216;28;20025;-63
2021/05/27 11:35:43;;;;;;;2.30;1.30;;;;;;;16.95;54.24;98829.53;5064162;28;20028;-63
2021/05/27 11:38:19;;;;;;;2.33;1.08;;;;;;;17.23;54.08;98827.44;5064079;28;20032;-63
2021/05/27 11:40:48;;;;;;;1.73;1.23;;;;;;;17.14;53.58;98825.16;5064122;28;20028;-63
2021/05/27 11:43:15;;;;;;;3.25;1.00;;;;;;;17.15;53.49;98821.56;5064133;28;20048;-63
2021/05/27 11:45:43;;;;;;;1.75;1.10;;;;;;;17.08;53.42;98814.78;5064123;28;20020;-63
2021/05/27 11:48:13;;;;;;;2.58;1.30;;;;;;;16.87;54.50;98813.00;5064105;28;20020;-63
2021/05/27 11:50:38;;;;;;;4.97;1.38;;;;;;;17.15;54.82;98821.56;5064001;28;20016;-63
2021/05/27 11:53:04;;;;;;;3.75;1.27;;;;;;;17.57;54.21;98812.69;5064023;28;20127;-63
2021/05/27 11:55:31;;;;;;;2.90;1.20;;;;;;;17.72;54.51;98817.34;5063951;28;20040;-63